createdAt,value
2019-05-02T00:01:26.856Z,11.01
2019-05-02T00:03:57.114Z,10.94
2019-05-02T00:06:27.337Z,10.92
2019-05-02T00:08:56.931Z,10.88
2019-05-02T00:11:27.129Z,10.81
2019-05-02T00:13:57.038Z,10.80
2019-05-02T00:16:26.725Z,10.74
2019-05-02T00:18:56.484Z,10.71
2019-05-02T00:21:26.150Z,10.66
2019-05-02T00:23:59.131Z,10.69
2019-05-02T00:26:26.952Z,10.71
2019-05-02T00:28:56.676Z,10.68
2019-05-02T00:31:26.248Z,10.59
2019-05-02T00:33:55.830Z,10.59
2019-05-02T00:36:25.383Z,10.56
2019-05-02T00:38:54.978Z,10.50
2019-05-02T00:41:24.567Z,10.55
2019-05-02T00:43:54.194Z,10.52
2019-05-02T00:46:23.767Z,10.50
2019-05-02T00:48:59.678Z,10.45
2019-05-02T00:51:26.671Z,10.42
2019-05-02T00:53:57.549Z,10.37
2019-05-02T00:56:27.119Z,10.31
2019-05-02T00:58:56.680Z,10.29
2019-05-02T01:01:29.454Z,10.26
2019-05-02T01:04:17.444Z,10.22
2019-05-02T01:06:49.273Z,10.22
2019-05-02T01:09:18.315Z,10.20
2019-05-02T01:11:47.892Z,10.18
2019-05-02T01:14:17.510Z,10.14
2019-05-02T01:16:49.454Z,10.10
2019-05-02T01:19:18.397Z,10.11
2019-05-02T01:21:49.602Z,10.09
2019-05-02T01:24:19.167Z,10.06
2019-05-02T01:26:50.378Z,10.00
2019-05-02T01:29:31.749Z,9.99
2019-05-02T01:32:07.274Z,9.96
2019-05-02T01:34:44.337Z,9.94
2019-05-02T01:37:21.131Z,9.91
2019-05-02T01:39:49.781Z,9.89
2019-05-02T01:42:19.330Z,9.83
2019-05-02T01:44:48.902Z,9.77
2019-05-02T01:47:18.426Z,9.76
2019-05-02T01:49:51.958Z,9.72
2019-05-02T01:52:23.791Z,9.69
2019-05-02T01:54:50.512Z,9.69
2019-05-02T01:57:20.064Z,9.67
2019-05-02T01:59:49.631Z,9.66
2019-05-02T02:02:19.494Z,9.59
2019-05-02T02:04:52.235Z,9.59
2019-05-02T02:07:21.238Z,9.58
2019-05-02T02:09:50.910Z,9.57
2019-05-02T02:12:20.545Z,9.58
2019-05-02T02:14:53.470Z,9.55
2019-05-02T02:17:21.334Z,9.51
2019-05-02T02:19:52.521Z,9.49
2019-05-02T02:22:23.725Z,9.45
2019-05-02T02:25:10.932Z,9.53
2019-05-02T02:27:40.741Z,9.59
2019-05-02T02:30:17.772Z,9.61
2019-05-02T02:32:42.264Z,9.58
2019-05-02T02:35:12.680Z,9.61
2019-05-02T02:37:51.912Z,9.60
2019-05-02T02:40:14.497Z,9.53
2019-05-02T02:42:44.077Z,9.46
2019-05-02T02:45:38.620Z,9.38
2019-05-02T02:48:08.122Z,9.36
2019-05-02T02:50:45.399Z,9.30
2019-05-02T02:53:18.067Z,9.26
2019-05-02T02:55:47.866Z,9.23
2019-05-02T02:58:17.419Z,9.21
2019-05-02T03:00:47.581Z,9.18
2019-05-02T03:03:20.783Z,9.13
2019-05-02T03:05:49.623Z,9.10
2019-05-02T03:08:19.345Z,9.05
2019-05-02T03:10:49.282Z,9.04
2019-05-02T03:13:24.585Z,9.04
2019-05-02T03:16:13.434Z,9.02
2019-05-02T03:18:43.326Z,8.91
2019-05-02T03:21:19.603Z,8.90
2019-05-02T03:23:44.687Z,8.93
2019-05-02T03:26:15.574Z,8.95
2019-05-02T03:28:57.298Z,9.00
2019-05-02T03:31:30.337Z,9.04
2019-05-02T03:33:56.594Z,9.09
2019-05-02T03:36:29.628Z,9.14
2019-05-02T03:38:51.729Z,9.14
2019-05-02T03:41:23.649Z,9.24
2019-05-02T03:44:09.940Z,9.27
2019-05-02T03:46:24.158Z,9.24
2019-05-02T03:49:05.969Z,9.19
2019-05-02T03:51:25.508Z,9.16
2019-05-02T03:54:06.104Z,9.15
2019-05-02T03:56:26.525Z,9.18
2019-05-02T03:58:58.207Z,9.18
2019-05-02T04:01:27.728Z,9.22
2019-05-02T04:03:57.456Z,9.21
2019-05-02T04:06:27.008Z,9.22
2019-05-02T04:08:59.842Z,9.20
2019-05-02T04:11:38.293Z,9.15
2019-05-02T04:14:00.132Z,9.23
2019-05-02T04:16:30.796Z,9.26
2019-05-02T04:19:02.607Z,9.28
2019-05-02T04:21:32.622Z,9.23
2019-05-02T04:24:12.881Z,9.21
2019-05-02T04:26:34.567Z,9.24
2019-05-02T04:29:04.260Z,9.25
2019-05-02T04:31:34.052Z,9.23
2019-05-02T04:34:13.591Z,9.20
2019-05-02T04:36:35.210Z,9.23
2019-05-02T04:39:12.714Z,9.19
2019-05-02T04:41:42.509Z,9.15
2019-05-02T04:44:10.768Z,9.19
2019-05-02T04:46:40.327Z,9.22
2019-05-02T04:49:09.881Z,9.24
2019-05-02T04:51:41.001Z,9.26
2019-05-02T04:54:21.848Z,9.29
2019-05-02T04:56:49.511Z,9.28
2019-05-02T04:59:17.856Z,9.31
2019-05-02T05:01:52.773Z,9.37
2019-05-02T05:04:17.817Z,9.33
2019-05-02T05:06:55.882Z,9.36
2019-05-02T05:09:21.737Z,9.45
2019-05-02T05:11:53.920Z,9.46
2019-05-02T05:14:22.552Z,9.49
2019-05-02T05:16:55.572Z,9.50
2019-05-02T05:19:28.710Z,9.50
2019-05-02T05:21:56.722Z,9.58
2019-05-02T05:24:27.947Z,9.55
2019-05-02T05:27:00.176Z,9.53
2019-05-02T05:29:29.869Z,9.51
2019-05-02T05:32:05.105Z,9.46
2019-05-02T05:34:32.738Z,9.45
2019-05-02T05:37:03.532Z,9.48
2019-05-02T05:39:33.597Z,9.51
2019-05-02T05:42:03.107Z,9.50
2019-05-02T05:44:32.911Z,9.41
2019-05-02T05:47:02.476Z,9.42
2019-05-02T05:49:32.068Z,9.42
2019-05-02T05:52:03.721Z,9.48
2019-05-02T05:54:37.547Z,9.51
2019-05-02T05:57:04.222Z,9.53
2019-05-02T05:59:33.821Z,9.51
2019-05-02T06:02:05.695Z,9.53
2019-05-02T06:04:35.014Z,9.60
2019-05-02T06:07:04.643Z,9.61
2019-05-02T06:09:34.219Z,9.63
2019-05-02T06:12:04.292Z,9.69
2019-05-02T06:14:35.432Z,9.74
2019-05-02T06:17:05.168Z,9.85
2019-05-02T06:19:34.798Z,9.86
2019-05-02T06:22:04.406Z,9.85
2019-05-02T06:24:35.211Z,9.88
2019-05-02T06:27:04.922Z,9.95
2019-05-02T06:29:37.605Z,9.89
2019-05-02T06:32:07.314Z,9.85
2019-05-02T06:34:46.011Z,9.91
2019-05-02T06:37:13.432Z,9.96
2019-05-02T06:39:42.667Z,9.93
2019-05-02T06:42:12.209Z,9.93
2019-05-02T06:44:42.522Z,9.97
2019-05-02T06:47:13.106Z,9.99
2019-05-02T06:49:43.914Z,9.99
2019-05-02T06:52:14.487Z,10.09
2019-05-02T06:54:44.166Z,10.18
2019-05-02T06:57:13.898Z,10.09
2019-05-02T06:59:43.437Z,10.08
2019-05-02T07:02:13.049Z,10.09
2019-05-02T07:04:42.581Z,10.17
2019-05-02T07:07:13.213Z,10.22
2019-05-02T07:09:43.216Z,10.20
2019-05-02T07:12:14.730Z,10.19
2019-05-02T07:14:45.875Z,10.22
2019-05-02T07:17:36.451Z,10.29
2019-05-02T07:20:08.581Z,10.31
2019-05-02T07:22:40.442Z,10.34
2019-05-02T07:25:11.071Z,10.30
2019-05-02T07:27:40.703Z,10.35
2019-05-02T07:30:11.844Z,10.34
2019-05-02T07:32:41.392Z,10.35
2019-05-02T07:35:11.260Z,10.37
2019-05-02T07:37:43.969Z,10.39
2019-05-02T07:40:16.924Z,10.33
2019-05-02T07:42:47.992Z,10.24
2019-05-02T07:45:18.251Z,10.30
2019-05-02T07:47:47.967Z,10.37
2019-05-02T07:50:17.830Z,10.42
2019-05-02T07:52:47.445Z,10.48
2019-05-02T07:55:17.039Z,10.55
2019-05-02T07:57:46.805Z,10.49
2019-05-02T08:00:18.749Z,10.55
2019-05-02T08:02:51.947Z,10.67
2019-05-02T08:05:23.955Z,10.73
2019-05-02T08:07:55.201Z,10.76
2019-05-02T08:10:25.072Z,10.68
2019-05-02T08:12:54.832Z,10.62
2019-05-02T08:15:24.932Z,10.56
2019-05-02T08:17:55.212Z,10.52
2019-05-02T08:20:25.191Z,10.50
2019-05-02T08:22:54.756Z,10.49
2019-05-02T08:25:24.389Z,10.54
2019-05-02T08:27:55.565Z,10.56
2019-05-02T08:30:26.915Z,10.60
2019-05-02T08:32:56.498Z,10.62
2019-05-02T08:35:28.317Z,10.72
2019-05-02T08:37:59.789Z,10.73
2019-05-02T08:40:32.628Z,10.80
2019-05-02T08:43:03.700Z,10.89
2019-05-02T08:45:38.139Z,10.89
2019-05-02T08:48:06.774Z,10.86
2019-05-02T08:50:39.183Z,10.95
2019-05-02T08:53:08.785Z,11.09
2019-05-02T08:55:41.425Z,11.29
2019-05-02T08:58:14.539Z,11.43
2019-05-02T09:00:41.162Z,11.42
2019-05-02T09:03:10.797Z,11.38
2019-05-02T09:05:46.023Z,11.50
2019-05-02T09:08:14.247Z,11.53
2019-05-02T09:10:45.548Z,11.72
2019-05-02T09:13:23.269Z,11.92
2019-05-02T09:15:51.190Z,12.03
2019-05-02T09:18:17.767Z,12.07
2019-05-02T09:20:52.572Z,12.05
2019-05-02T09:23:18.612Z,12.13
2019-05-02T09:25:48.882Z,12.27
2019-05-02T09:28:22.502Z,12.31
2019-05-02T09:30:52.313Z,12.52
2019-05-02T09:33:25.648Z,12.76
2019-05-02T09:35:53.635Z,13.03
2019-05-02T09:38:24.412Z,13.34
2019-05-02T09:40:56.174Z,13.30
2019-05-02T09:44:25.377Z,13.39
2019-05-02T09:46:16.594Z,13.12
2019-05-02T09:48:45.943Z,12.99
2019-05-02T09:51:17.567Z,13.05
2019-05-02T09:53:47.573Z,13.19
2019-05-02T09:56:19.354Z,13.21
2019-05-02T09:58:54.292Z,12.97
2019-05-02T10:01:28.656Z,12.90
2019-05-02T10:03:58.586Z,12.97
2019-05-02T10:06:32.071Z,13.14
2019-05-02T10:09:05.686Z,13.34
2019-05-02T10:11:35.554Z,13.33
2019-05-02T10:14:07.194Z,13.29
2019-05-02T10:16:38.844Z,13.28
2019-05-02T10:19:25.725Z,13.08
2019-05-02T10:21:56.201Z,13.14
2019-05-02T10:24:25.580Z,13.19
2019-05-02T10:27:04.276Z,13.37
2019-05-02T10:29:29.900Z,13.54
2019-05-02T10:32:01.768Z,13.70
2019-05-02T10:34:32.968Z,13.91
2019-05-02T10:37:03.220Z,13.98
2019-05-02T10:39:37.969Z,14.05
2019-05-02T10:42:12.411Z,14.22
2019-05-02T10:44:42.685Z,14.42
2019-05-02T10:47:13.035Z,14.49
2019-05-02T10:49:45.277Z,14.69
2019-05-02T10:52:15.990Z,14.87
2019-05-02T10:54:45.865Z,14.87
2019-05-02T10:57:15.732Z,14.88
2019-05-02T10:59:46.353Z,14.88
2019-05-02T11:02:29.233Z,14.83
2019-05-02T11:05:17.002Z,14.95
2019-05-02T11:07:44.574Z,15.22
2019-05-02T11:10:15.207Z,15.50
2019-05-02T11:12:47.179Z,15.66
2019-05-02T11:15:34.984Z,15.89
2019-05-02T11:18:05.601Z,16.17
2019-05-02T11:20:35.748Z,16.34
2019-05-02T11:23:05.547Z,16.23
2019-05-02T11:25:35.484Z,16.17
2019-05-02T11:28:07.102Z,16.27
2019-05-02T11:30:39.045Z,16.33
2019-05-02T11:33:09.493Z,16.11
2019-05-02T11:35:41.877Z,16.17
2019-05-02T11:38:34.556Z,16.24
2019-05-02T11:40:43.173Z,16.25
2019-05-02T11:43:15.136Z,16.16
2019-05-02T11:45:44.588Z,16.19
2019-05-02T11:48:16.151Z,16.16
2019-05-02T11:50:46.675Z,16.34
2019-05-02T11:53:29.181Z,16.30
2019-05-02T11:55:49.747Z,16.20
2019-05-02T11:58:20.107Z,16.24
2019-05-02T12:00:52.080Z,16.38
2019-05-02T12:03:35.502Z,16.47
2019-05-02T12:06:01.973Z,16.45
2019-05-02T12:08:31.999Z,16.51
2019-05-02T12:11:03.890Z,16.50
2019-05-02T12:13:33.824Z,16.45
2019-05-02T12:16:05.210Z,16.30
2019-05-02T12:18:35.080Z,16.18
2019-05-02T12:21:04.809Z,16.19
2019-05-02T12:23:36.369Z,16.17
2019-05-02T12:26:06.674Z,16.18
2019-05-02T12:28:36.593Z,16.26
2019-05-02T12:31:13.204Z,16.45
2019-05-02T12:33:42.741Z,16.62
2019-05-02T12:36:12.485Z,16.63
2019-05-02T12:38:54.467Z,16.64
2019-05-02T12:41:28.323Z,16.69
2019-05-02T12:43:57.868Z,16.68
2019-05-02T12:46:32.658Z,16.77
2019-05-02T12:49:02.815Z,16.77
2019-05-02T12:51:32.734Z,16.88
2019-05-02T12:54:14.081Z,16.94
2019-05-02T12:56:50.295Z,16.91
2019-05-02T12:59:25.953Z,16.82
2019-05-02T13:03:16.383Z,16.79
2019-05-02T13:25:02.422Z,17.02
2019-05-02T13:27:43.266Z,17.10
2019-05-02T13:30:06.701Z,17.04
2019-05-02T13:32:38.863Z,17.13
2019-05-02T13:35:31.515Z,17.23
2019-05-02T13:38:02.768Z,17.16
2019-05-02T13:40:41.830Z,17.19
2019-05-02T13:43:12.565Z,17.21
2019-05-02T13:45:45.786Z,17.33
2019-05-02T13:48:16.580Z,17.30
2019-05-02T13:50:46.879Z,17.18
2019-05-02T13:53:17.366Z,17.10
2019-05-02T13:55:52.422Z,17.07
2019-05-02T13:58:28.977Z,17.13
2019-05-02T14:00:53.531Z,17.33
2019-05-02T14:03:23.353Z,17.41
2019-05-02T14:05:53.864Z,17.44
2019-05-02T14:08:37.057Z,17.39
2019-05-02T14:11:07.044Z,17.22
2019-05-02T14:13:38.182Z,17.27
2019-05-02T14:16:08.347Z,17.07
2019-05-02T14:18:38.980Z,17.06
2019-05-02T14:21:08.598Z,17.18
2019-05-02T14:23:38.168Z,17.14
2019-05-02T14:26:07.825Z,17.07
2019-05-02T14:28:37.387Z,16.83
2019-05-02T14:31:07.190Z,16.79
2019-05-02T14:33:39.138Z,16.91
2019-05-02T14:36:11.601Z,17.01
2019-05-02T14:38:42.203Z,16.84
2019-05-02T14:41:13.387Z,16.76
2019-05-02T14:43:55.520Z,16.77
2019-05-02T14:46:34.440Z,16.74
2019-05-02T14:48:57.232Z,16.70
2019-05-02T14:51:28.003Z,16.51
2019-05-02T14:54:03.820Z,16.46
2019-05-02T14:56:32.893Z,16.45
2019-05-02T14:59:02.760Z,16.38
2019-05-02T15:01:32.443Z,16.38
2019-05-02T15:04:06.504Z,16.36
2019-05-02T15:06:38.422Z,16.37
2019-05-02T15:09:11.925Z,16.24
2019-05-02T15:11:46.073Z,16.12
2019-05-02T15:14:19.807Z,15.89
2019-05-02T15:16:56.649Z,15.80
2019-05-02T15:19:22.434Z,15.72
2019-05-02T15:21:55.941Z,15.60
2019-05-02T15:24:27.817Z,15.44
2019-05-02T15:26:56.011Z,15.48
2019-05-02T15:29:27.288Z,15.24
2019-05-02T15:32:05.273Z,15.06
2019-05-02T15:34:43.270Z,14.64
2019-05-02T15:37:09.773Z,14.44
2019-05-02T15:42:12.143Z,14.17
2019-05-02T15:44:42.630Z,14.15
2019-05-02T15:47:12.452Z,14.05
2019-05-02T15:49:50.157Z,13.98
2019-05-02T15:52:24.172Z,14.03
2019-05-02T15:54:59.760Z,14.12
2019-05-02T15:57:27.085Z,14.25
2019-05-02T15:59:59.176Z,14.21
2019-05-02T16:02:32.080Z,14.26
2019-05-02T16:05:05.393Z,14.22
2019-05-02T16:07:38.014Z,14.18
2019-05-02T16:10:13.136Z,13.96
2019-05-02T16:12:44.461Z,13.87
2019-05-02T16:15:24.608Z,13.84
2019-05-02T16:17:56.746Z,13.68
2019-05-02T16:20:34.538Z,13.56
2019-05-02T16:23:05.950Z,13.63
2019-05-02T16:25:35.514Z,13.78
2019-05-02T16:28:06.164Z,13.86
2019-05-02T16:30:36.958Z,13.88
2019-05-02T16:33:07.999Z,13.90
2019-05-02T16:35:41.930Z,13.84
2019-05-02T16:38:12.303Z,13.82
2019-05-02T16:40:43.129Z,13.77
2019-05-02T16:43:12.937Z,13.86
2019-05-02T16:45:43.894Z,13.96
2019-05-02T16:48:13.658Z,13.99
2019-05-02T16:50:45.057Z,14.03
2019-05-02T16:53:17.140Z,14.03
2019-05-02T16:55:48.591Z,14.00
2019-05-02T16:58:19.218Z,13.92
2019-05-02T17:00:49.073Z,13.73
2019-05-02T17:03:22.759Z,13.49
2019-05-02T17:05:54.183Z,13.22
2019-05-02T17:08:42.218Z,13.16
2019-05-02T17:11:17.551Z,13.07
2019-05-02T17:13:49.803Z,12.90
2019-05-02T17:16:22.134Z,12.92
2019-05-02T17:18:56.577Z,12.86
2019-05-02T17:21:26.782Z,12.68
2019-05-02T17:23:58.022Z,12.50
2019-05-02T17:26:28.446Z,12.41
2019-05-02T17:29:00.098Z,12.33
2019-05-02T17:31:32.251Z,12.29
2019-05-02T17:34:02.857Z,12.22
2019-05-02T17:36:32.884Z,12.20
2019-05-02T17:39:06.331Z,12.23
2019-05-02T17:41:37.131Z,12.28
2019-05-02T17:44:07.706Z,12.31
2019-05-02T17:46:39.288Z,12.37
2019-05-02T17:49:11.806Z,12.42
2019-05-02T17:51:51.823Z,12.43
2019-05-02T17:54:22.796Z,12.42
2019-05-02T17:56:57.346Z,12.37
2019-05-02T17:59:33.022Z,12.45
2019-05-02T18:02:01.854Z,12.54
2019-05-02T18:04:32.537Z,12.52
2019-05-02T18:07:04.506Z,12.56
2019-05-02T18:09:35.144Z,12.52
2019-05-02T18:12:07.224Z,12.46
2019-05-02T18:14:36.612Z,12.50
2019-05-02T18:17:06.242Z,12.51
2019-05-02T18:19:37.731Z,12.56
2019-05-02T18:22:22.486Z,12.56
2019-05-02T18:24:42.786Z,12.44
2019-05-02T18:27:10.285Z,12.36
2019-05-02T18:29:42.614Z,12.30
2019-05-02T18:32:12.888Z,12.35
2019-05-02T18:34:42.627Z,12.27
2019-05-02T18:37:12.297Z,12.29
2019-05-02T18:39:49.900Z,12.32
2019-05-02T18:42:16.612Z,12.40
2019-05-02T18:44:48.239Z,12.43
2019-05-02T18:47:20.166Z,12.49
2019-05-02T18:49:47.633Z,12.52
2019-05-02T18:52:17.257Z,12.56
2019-05-02T18:54:47.449Z,12.58
2019-05-02T18:57:21.814Z,12.57
2019-05-02T18:59:51.957Z,12.58
2019-05-02T19:02:21.258Z,12.56
2019-05-02T19:04:51.726Z,12.60
2019-05-02T19:07:30.910Z,12.59
2019-05-02T19:09:53.936Z,12.57
2019-05-02T19:12:25.992Z,12.62
2019-05-02T19:14:57.458Z,12.59
2019-05-02T19:17:26.206Z,12.54
2019-05-02T19:19:55.783Z,12.49
2019-05-02T19:22:25.617Z,12.48
2019-05-02T19:24:55.215Z,12.43
2019-05-02T19:27:29.111Z,12.47
2019-05-02T19:29:58.688Z,12.53
2019-05-02T19:32:28.541Z,12.52
2019-05-02T19:35:05.382Z,12.53
2019-05-02T19:37:31.611Z,12.54
2019-05-02T19:40:01.606Z,12.55
2019-05-02T19:42:31.853Z,12.52
2019-05-02T19:45:11.197Z,12.54
2019-05-02T19:47:33.499Z,12.54
2019-05-02T19:50:03.867Z,12.51
2019-05-02T19:52:39.188Z,12.49
2019-05-02T19:55:06.737Z,12.47
2019-05-02T19:57:36.856Z,12.41
2019-05-02T20:00:08.868Z,12.40
2019-05-02T20:02:42.239Z,12.41
2019-05-02T20:05:11.855Z,12.44
2019-05-02T20:07:42.697Z,12.36
2019-05-02T20:10:17.922Z,12.38
2019-05-02T20:12:48.233Z,12.40
2019-05-02T20:15:25.350Z,12.39
2019-05-02T20:17:55.293Z,12.42
2019-05-02T20:20:42.664Z,12.42
2019-05-02T20:23:17.948Z,12.40
2019-05-02T20:25:44.904Z,12.36
2019-05-02T20:28:14.748Z,12.35
2019-05-02T20:30:44.468Z,12.39
2019-05-02T20:33:14.248Z,12.39
2019-05-02T20:35:44.006Z,12.38
2019-05-02T20:38:13.920Z,12.35
2019-05-02T20:40:43.741Z,12.28
2019-05-02T20:43:13.577Z,12.18
2019-05-02T20:45:46.103Z,12.02
2019-05-02T20:48:15.245Z,11.99
2019-05-02T20:50:45.106Z,11.81
2019-05-02T20:53:27.480Z,11.65
2019-05-02T20:55:46.545Z,11.59
2019-05-02T20:58:16.316Z,11.53
2019-05-02T21:00:46.270Z,11.51
2019-05-02T21:03:16.230Z,11.47
2019-05-02T21:05:47.986Z,11.49
2019-05-02T21:08:25.882Z,11.30
2019-05-02T21:11:01.798Z,11.19
2019-05-02T21:13:32.744Z,11.17
2019-05-02T21:16:02.877Z,11.15
2019-05-02T21:18:32.910Z,11.06
2019-05-02T21:21:02.950Z,11.07
2019-05-02T21:23:44.168Z,10.89
2019-05-02T21:26:04.743Z,10.80
2019-05-02T21:28:34.615Z,10.83
2019-05-02T21:31:04.641Z,10.72
2019-05-02T21:33:37.551Z,10.71
2019-05-02T21:36:08.119Z,10.65
2019-05-02T21:38:38.622Z,10.53
2019-05-02T21:41:11.376Z,10.41
2019-05-02T21:43:42.471Z,10.32
2019-05-02T21:46:12.357Z,10.22
2019-05-02T21:48:42.184Z,10.14
2019-05-02T21:51:17.034Z,10.05
2019-05-02T21:53:55.069Z,10.02
2019-05-02T21:56:23.536Z,9.95
2019-05-02T21:59:05.944Z,9.85
2019-05-02T22:01:42.089Z,9.87
2019-05-02T22:04:13.175Z,9.83
2019-05-02T22:06:42.934Z,9.79
2019-05-02T22:09:12.847Z,9.72
2019-05-02T22:11:43.155Z,9.70
2019-05-02T22:14:13.308Z,9.69
2019-05-02T22:16:43.606Z,9.73
2019-05-02T22:19:13.132Z,9.67
2019-05-02T22:21:43.098Z,9.75
2019-05-02T22:24:14.405Z,9.72
2019-05-02T22:26:44.141Z,9.76
2019-05-02T22:29:13.688Z,9.77
2019-05-02T22:31:43.244Z,9.71
2019-05-02T22:34:13.066Z,9.72
2019-05-02T22:36:43.829Z,9.77
2019-05-02T22:39:31.687Z,9.82
2019-05-02T22:42:01.993Z,9.79
2019-05-02T22:44:32.700Z,9.77
2019-05-02T22:47:02.207Z,9.80
2019-05-02T22:49:31.973Z,9.84
2019-05-02T22:52:01.855Z,9.79
2019-05-02T22:54:33.885Z,9.76
2019-05-02T22:57:02.806Z,9.71
2019-05-02T22:59:32.354Z,9.80
2019-05-02T23:02:02.249Z,9.75
2019-05-02T23:04:32.486Z,9.70
2019-05-02T23:07:02.579Z,9.67
2019-05-02T23:09:32.150Z,9.63
2019-05-02T23:12:02.851Z,9.68
2019-05-02T23:14:32.737Z,9.70
2019-05-02T23:17:02.382Z,9.68
2019-05-02T23:19:33.529Z,9.69
2019-05-02T23:22:03.183Z,9.64
2019-05-02T23:24:38.756Z,9.69
2019-05-02T23:27:13.397Z,9.67
2019-05-02T23:29:43.137Z,9.71
2019-05-02T23:32:12.689Z,9.56
2019-05-02T23:34:42.263Z,9.61
2019-05-02T23:37:12.004Z,9.67
2019-05-02T23:39:41.867Z,9.76
2019-05-02T23:42:13.397Z,9.86
2019-05-02T23:44:42.780Z,9.97
2019-05-02T23:47:12.352Z,9.86
2019-05-02T23:49:42.698Z,9.83
2019-05-02T23:52:12.392Z,9.83
2019-05-02T23:54:49.279Z,9.86
2019-05-02T23:57:13.255Z,9.92
2019-05-02T23:59:42.808Z,9.85
